Time;durP1;ratioP1;P1;durP2;ratioP2;P2;SDS_P1;SDS_P2;PMS_P1;PMS_P2;Temp;Humidity;BMP_temperature;BMP_pressure;BME280_temperature;BME280_humidity;BME280_pressure;Samples;Min_cycle;Max_cycle;Signal;HPM_P1;HPM_P2
2021/09/04 00:03:49;;;;;;;7.22;5.15;;;;;;;16.32;50.48;101386.28;7991681;28;20059;-68
2021/09/04 00:07:40;;;;;;;8.50;5.55;;;;;;;16.26;50.60;101376.19;7994130;28;20029;-68
2021/09/04 00:11:32;;;;;;;8.60;5.22;;;;;;;16.24;50.56;101383.44;7992138;28;20060;-68
2021/09/04 00:15:26;;;;;;;10.45;5.25;;;;;;;16.16;50.80;101364.66;8000874;28;20132;-68
2021/09/04 00:19:17;;;;;;;8.90;5.40;;;;;;;16.17;50.93;101368.97;7992943;28;20102;-68
2021/09/04 00:23:08;;;;;;;12.18;5.55;;;;;;;16.13;50.76;101373.69;7975620;28;20041;-68
2021/09/04 00:26:59;;;;;;;12.25;5.72;;;;;;;16.12;50.98;101368.50;7990628;28;20106;-68
2021/09/04 00:30:49;;;;;;;10.20;5.38;;;;;;;16.09;51.01;101377.53;7991728;28;20033;-68
2021/09/04 00:34:40;;;;;;;9.93;5.38;;;;;;;16.04;50.88;101368.25;7992770;28;20030;-68
2021/09/04 00:38:30;;;;;;;13.57;5.72;;;;;;;16.02;51.03;101363.09;7988103;28;20024;-68
2021/09/04 00:42:21;;;;;;;7.45;5.20;;;;;;;15.99;51.11;101359.88;7993153;28;20035;-68
2021/09/04 00:46:12;;;;;;;12.55;5.82;;;;;;;15.96;51.22;101365.38;7991246;28;20040;-68
2021/09/04 00:50:03;;;;;;;11.20;5.47;;;;;;;15.93;51.11;101371.78;7992444;28;20037;-68
2021/09/04 00:53:54;;;;;;;7.95;5.38;;;;;;;15.88;51.13;101362.50;7992122;28;20110;-68
2021/09/04 00:57:46;;;;;;;13.27;5.65;;;;;;;15.86;51.33;101360.00;7990905;28;20036;-68
2021/09/04 01:01:37;;;;;;;8.77;5.60;;;;;;;15.84;51.08;101358.44;7990995;28;20033;-68
2021/09/04 01:05:28;;;;;;;9.82;6.00;;;;;;;15.81;51.47;101356.88;7989071;28;20039;-68
2021/09/04 01:09:19;;;;;;;12.43;6.20;;;;;;;15.75;51.40;101345.94;7989520;28;20028;-68
2021/09/04 01:13:10;;;;;;;14.27;5.90;;;;;;;15.75;51.53;101351.25;7990219;28;20064;-68
2021/09/04 01:17:00;;;;;;;10.73;6.00;;;;;;;15.69;51.60;101342.81;7991703;28;20039;-68
2021/09/04 01:20:51;;;;;;;11.93;6.40;;;;;;;15.70;51.70;101343.66;7991072;28;20045;-68
2021/09/04 01:24:48;;;;;;;11.73;6.75;;;;;;;15.69;51.95;101341.97;7990188;28;20025;-68
2021/09/04 01:28:39;;;;;;;12.27;6.80;;;;;;;15.67;51.88;101346.53;7989387;28;20071;-68
2021/09/04 01:32:30;;;;;;;11.02;5.97;;;;;;;15.63;52.04;101348.59;7985785;28;20393;-68
2021/09/04 01:36:34;;;;;;;10.05;5.97;;;;;;;15.65;51.99;101348.47;7989694;28;20678;-68
2021/09/04 01:40:24;;;;;;;10.45;6.20;;;;;;;15.64;52.02;101354.72;7990221;28;20060;-68
2021/09/04 01:44:15;;;;;;;13.55;6.38;;;;;;;15.59;52.13;101336.56;7990005;28;20041;-68
2021/09/04 01:48:06;;;;;;;18.98;6.97;;;;;;;15.60;52.16;101340.91;7989929;28;20048;-68
2021/09/04 01:51:56;;;;;;;11.60;7.43;;;;;;;15.58;52.27;101336.72;7990010;28;20041;-68
2021/09/04 01:55:47;;;;;;;11.70;6.25;;;;;;;15.56;52.37;101328.03;7990925;28;20013;-68
2021/09/04 01:59:38;;;;;;;12.63;7.10;;;;;;;15.55;52.03;101326.34;7991028;28;20506;-68
2021/09/04 02:03:29;;;;;;;12.52;7.70;;;;;;;15.54;52.59;101328.13;7987513;28;20029;-68
2021/09/04 02:07:20;;;;;;;13.65;6.70;;;;;;;15.48;52.55;101320.69;7989706;28;20032;-68
2021/09/04 02:11:10;;;;;;;10.82;6.93;;;;;;;15.48;52.54;101327.78;7989816;28;20039;-68
2021/09/04 02:15:04;;;;;;;17.00;6.93;;;;;;;15.49;52.61;101345.38;7990479;28;20041;-68
2021/09/04 02:18:55;;;;;;;10.57;7.07;;;;;;;15.39;52.45;101321.41;7996894;28;20033;-68
2021/09/04 02:22:47;;;;;;;12.93;6.72;;;;;;;15.42;52.73;101331.75;7997885;28;20061;-68
2021/09/04 02:26:39;;;;;;;9.60;6.57;;;;;;;15.43;52.73;101329.97;7996466;28;20621;-68
2021/09/04 02:30:31;;;;;;;14.45;7.43;;;;;;;15.41;52.57;101326.59;7980217;28;20041;-68
2021/09/04 02:34:22;;;;;;;12.48;6.75;;;;;;;15.39;53.32;101326.72;7996563;28;20522;-68
2021/09/04 02:38:13;;;;;;;12.77;7.10;;;;;;;15.36;52.69;101326.97;7991024;28;20033;-67
2021/09/04 02:42:03;;;;;;;12.48;6.90;;;;;;;15.33;52.72;101318.44;8001456;28;20043;-68
2021/09/04 02:45:55;;;;;;;14.68;7.22;;;;;;;15.29;52.83;101317.84;7987589;28;20529;-68
2021/09/04 02:49:46;;;;;;;11.07;6.53;;;;;;;15.26;52.77;101318.88;7987999;28;20025;-68
2021/09/04 02:53:36;;;;;;;12.48;6.80;;;;;;;15.23;52.91;101310.34;7996211;28;20030;-68
2021/09/04 02:57:28;;;;;;;13.32;7.00;;;;;;;15.18;52.84;101312.50;7996406;28;20367;-68
2021/09/04 03:01:20;;;;;;;13.68;7.10;;;;;;;15.15;52.81;101312.75;7991143;28;20045;-68
2021/09/04 03:05:11;;;;;;;16.08;7.28;;;;;;;15.11;52.94;101312.13;7995677;28;20040;-68
2021/09/04 03:09:03;;;;;;;12.93;7.88;;;;;;;15.07;53.27;101313.34;7995566;28;20033;-68
2021/09/04 03:12:53;;;;;;;15.48;7.85;;;;;;;15.06;53.18;101318.75;7995413;28;20028;-68
2021/09/04 03:16:44;;;;;;;14.27;7.90;;;;;;;14.99;53.10;101312.25;7998434;28;20029;-68
2021/09/04 03:20:35;;;;;;;15.00;7.82;;;;;;;14.99;53.39;101315.75;7994375;28;20033;-68
2021/09/04 03:24:25;;;;;;;14.57;8.23;;;;;;;14.98;53.20;101318.50;7993893;28;20032;-68
2021/09/04 03:28:16;;;;;;;14.90;8.82;;;;;;;14.86;53.42;101303.56;7992264;28;20037;-68
2021/09/04 03:32:07;;;;;;;13.85;8.23;;;;;;;14.93;53.42;101320.66;7993814;28;20108;-68
2021/09/04 03:35:59;;;;;;;13.52;8.10;;;;;;;14.90;53.47;101321.75;7993150;28;20513;-68
2021/09/04 03:39:49;;;;;;;14.80;8.52;;;;;;;14.88;53.57;101320.19;7995118;28;20025;-68
2021/09/04 03:43:41;;;;;;;13.63;8.43;;;;;;;14.85;53.53;101323.88;7992537;28;20590;-68
2021/09/04 03:47:33;;;;;;;13.80;8.38;;;;;;;14.83;53.49;101320.53;7972542;28;20040;-68
2021/09/04 03:51:24;;;;;;;13.40;8.65;;;;;;;14.80;53.69;101318.94;7989971;28;20108;-68
2021/09/04 03:55:16;;;;;;;15.32;9.13;;;;;;;14.79;53.87;101321.72;7993128;28;20121;-68
2021/09/04 03:59:07;;;;;;;12.13;7.60;;;;;;;14.77;53.72;101321.84;7997397;28;20512;-68
2021/09/04 04:02:57;;;;;;;17.40;8.55;;;;;;;14.75;53.75;101329.03;7993037;28;20037;-68
2021/09/04 04:06:48;;;;;;;15.93;9.20;;;;;;;14.72;53.72;101325.78;7981205;28;20022;-68
2021/09/04 04:10:41;;;;;;;16.02;8.43;;;;;;;14.71;53.85;101334.69;7994086;28;20033;-68
2021/09/04 04:14:32;;;;;;;13.82;8.45;;;;;;;14.67;53.77;101334.06;7994029;28;20030;-68
2021/09/04 04:18:22;;;;;;;16.05;9.10;;;;;;;14.66;53.81;101335.06;7993621;28;20029;-68
2021/09/04 04:22:14;;;;;;;18.83;9.02;;;;;;;14.63;53.98;101337.09;7994192;28;20105;-68
2021/09/04 04:26:07;;;;;;;15.43;8.32;;;;;;;14.62;54.45;101332.75;7991582;28;20032;-68
2021/09/04 04:29:59;;;;;;;15.57;9.18;;;;;;;14.59;53.94;101331.16;7974364;28;20029;-68
2021/09/04 04:33:49;;;;;;;15.32;8.45;;;;;;;14.56;54.26;101331.41;7993093;28;20106;-68
2021/09/04 04:37:40;;;;;;;15.52;9.43;;;;;;;14.54;54.27;101324.56;7985814;28;20022;-68
2021/09/04 04:41:31;;;;;;;20.42;10.20;;;;;;;14.53;54.43;101336.09;7993467;28;20033;-68
2021/09/04 04:45:22;;;;;;;20.38;10.73;;;;;;;14.51;54.22;101335.34;7992483;28;20041;-68
2021/09/04 04:49:13;;;;;;;18.30;9.93;;;;;;;14.45;54.44;101336.66;7993000;28;20033;-68
2021/09/04 04:53:05;;;;;;;16.60;9.57;;;;;;;14.47;54.43;101339.16;7984627;28;20041;-68
2021/09/04 04:56:56;;;;;;;16.58;9.73;;;;;;;14.41;54.52;101332.53;7991181;28;20386;-68
2021/09/04 05:00:48;;;;;;;22.60;11.15;;;;;;;14.43;54.38;101343.00;7984292;28;20116;-67
2021/09/04 05:04:40;;;;;;;24.13;11.82;;;;;;;14.46;54.52;101340.16;7993532;28;20024;-67
2021/09/04 05:08:31;;;;;;;21.73;11.50;;;;;;;14.46;54.72;101348.09;7989532;28;20036;-67
2021/09/04 05:12:21;;;;;;;23.90;12.57;;;;;;;14.47;54.58;101347.09;7990402;28;20451;-67
2021/09/04 05:16:14;;;;;;;27.13;14.70;;;;;;;14.47;54.75;101360.31;7996375;28;20551;-67
2021/09/04 05:20:06;;;;;;;22.08;13.15;;;;;;;14.43;54.93;101359.72;7988934;28;20061;-67
2021/09/04 05:23:57;;;;;;;28.88;14.73;;;;;;;14.44;54.83;101366.69;7990543;28;20106;-67
2021/09/04 05:27:48;;;;;;;20.67;12.48;;;;;;;14.46;54.93;101370.06;7991734;28;20038;-67
2021/09/04 05:31:38;;;;;;;26.25;13.18;;;;;;;14.47;55.04;101365.59;7989383;28;20021;-67
2021/09/04 05:35:29;;;;;;;22.58;13.52;;;;;;;14.47;55.19;101377.03;7996597;28;20093;-67
2021/09/04 05:39:19;;;;;;;28.48;14.48;;;;;;;14.49;55.03;101382.22;7984340;28;20593;-67
2021/09/04 05:43:10;;;;;;;24.98;14.80;;;;;;;14.49;55.12;101384.84;7995514;28;20486;-67
2021/09/04 05:47:01;;;;;;;26.75;14.93;;;;;;;14.45;55.30;101373.66;7992805;28;20112;-67
2021/09/04 05:50:51;;;;;;;21.67;13.65;;;;;;;14.48;55.46;101384.00;7990056;28;20037;-67
2021/09/04 05:54:42;;;;;;;29.35;15.13;;;;;;;14.46;55.37;101375.38;8005897;28;20024;-67
2021/09/04 05:58:32;;;;;;;24.30;13.10;;;;;;;14.50;55.30;101390.03;8006298;28;20040;-67
2021/09/04 06:02:23;;;;;;;23.55;12.18;;;;;;;14.50;55.39;101395.31;8006606;28;20039;-67
2021/09/04 06:06:13;;;;;;;24.80;14.48;;;;;;;14.50;55.49;101387.41;8005864;28;20029;-67
2021/09/04 06:10:05;;;;;;;23.23;14.05;;;;;;;14.50;55.49;101392.69;8006193;28;20052;-67
2021/09/04 06:14:00;;;;;;;26.90;14.00;;;;;;;14.48;55.53;101380.50;7998170;28;20033;-67
2021/09/04 06:17:51;;;;;;;24.10;13.93;;;;;;;14.47;55.82;101384.09;7974586;28;20033;-67
2021/09/04 06:21:41;;;;;;;23.15;13.32;;;;;;;14.49;55.62;101398.91;7974558;28;20409;-67
2021/09/04 06:25:38;;;;;;;25.15;14.32;;;;;;;14.49;55.68;101398.06;7972685;28;20033;-67
2021/09/04 06:29:28;;;;;;;26.55;14.20;;;;;;;14.49;55.58;101396.28;7969819;28;20029;-67
2021/09/04 06:33:19;;;;;;;23.75;13.13;;;;;;;14.48;55.75;101402.50;7993613;28;20044;-67
2021/09/04 06:37:09;;;;;;;24.90;13.70;;;;;;;14.47;55.60;101406.09;8004205;28;20420;-67
2021/09/04 06:41:01;;;;;;;25.50;13.88;;;;;;;14.49;55.68;101413.94;7974411;28;20034;-67
2021/09/04 06:44:51;;;;;;;26.35;14.90;;;;;;;14.49;55.65;101403.34;7974224;28;20129;-67
2021/09/04 06:48:42;;;;;;;23.10;13.18;;;;;;;14.49;55.83;101406.84;7972736;28;20041;-67
2021/09/04 06:52:32;;;;;;;21.08;12.82;;;;;;;14.50;55.90;101402.41;7974358;28;20033;-67
2021/09/04 06:56:23;;;;;;;29.75;15.27;;;;;;;14.51;55.99;101398.78;7974301;28;20029;-67
2021/09/04 07:00:14;;;;;;;24.00;13.38;;;;;;;14.49;56.02;101406.84;7973889;28;20045;-67
2021/09/04 07:04:05;;;;;;;27.48;13.55;;;;;;;14.58;55.91;101407.97;7979430;28;20037;-67
2021/09/04 07:07:55;;;;;;;24.63;14.20;;;;;;;14.58;55.96;101405.31;7979833;28;20478;-67
2021/09/04 07:11:46;;;;;;;23.45;12.98;;;;;;;14.60;56.00;101409.53;7978491;28;20033;-67
2021/09/04 07:15:37;;;;;;;26.58;14.52;;;;;;;14.63;56.01;101409.28;7979542;28;20041;-67
2021/09/04 07:19:27;;;;;;;30.90;14.65;;;;;;;14.63;56.01;101406.66;7979713;28;20037;-67
2021/09/04 07:23:18;;;;;;;22.95;13.30;;;;;;;14.71;56.23;101406.09;7979709;28;20029;-67
2021/09/04 07:27:09;;;;;;;23.02;12.75;;;;;;;14.74;56.30;101405.88;7978618;28;20437;-67
2021/09/04 07:31:00;;;;;;;29.48;15.20;;;;;;;14.77;55.99;101419.69;7978970;28;20048;-67
2021/09/04 07:34:51;;;;;;;32.20;15.23;;;;;;;14.78;55.94;101428.47;7978582;28;20033;-67
2021/09/04 07:38:41;;;;;;;28.80;14.80;;;;;;;14.75;55.88;101418.13;7978777;28;20520;-67
2021/09/04 07:42:32;;;;;;;22.63;13.05;;;;;;;14.80;55.96;101430.03;8009131;28;20111;-67
2021/09/04 07:46:23;;;;;;;23.20;13.23;;;;;;;14.83;56.01;101432.44;8008541;28;20102;-67
2021/09/04 07:50:13;;;;;;;28.23;14.77;;;;;;;14.89;56.09;101427.66;8010193;28;20039;-67
2021/09/04 07:54:04;;;;;;;32.35;14.82;;;;;;;14.92;56.10;101430.09;7991153;28;20379;-67
2021/09/04 07:57:55;;;;;;;31.30;14.40;;;;;;;14.95;56.08;101435.16;7993644;28;20021;-67
2021/09/04 08:01:45;;;;;;;27.33;13.63;;;;;;;14.99;56.03;101434.78;8005359;28;20055;-67
2021/09/04 08:05:36;;;;;;;25.35;14.25;;;;;;;15.01;55.88;101432.88;7994005;28;20052;-67
2021/09/04 08:09:27;;;;;;;23.42;12.00;;;;;;;14.99;56.09;101437.44;7985952;28;20033;-67
2021/09/04 08:13:22;;;;;;;22.35;12.48;;;;;;;15.07;56.04;101444.78;7979959;28;20543;-67
2021/09/04 08:17:12;;;;;;;26.85;13.05;;;;;;;15.10;56.02;101444.56;7993956;28;20072;-67
2021/09/04 08:21:03;;;;;;;19.90;9.85;;;;;;;15.11;55.88;101441.81;7991199;28;20393;-67
2021/09/04 08:24:54;;;;;;;23.83;12.52;;;;;;;15.13;55.93;101441.66;8009111;28;20090;-67
2021/09/04 08:28:44;;;;;;;24.65;13.90;;;;;;;15.17;56.00;101445.75;8008573;28;20044;-67
2021/09/04 08:32:35;;;;;;;25.02;13.30;;;;;;;15.19;56.06;101450.00;8008926;28;20041;-67
2021/09/04 08:36:26;;;;;;;24.00;12.90;;;;;;;15.23;56.06;101446.16;8005297;28;20474;-67
2021/09/04 08:40:17;;;;;;;25.60;13.32;;;;;;;15.26;55.84;101451.22;7974572;28;20497;-67
2021/09/04 08:44:08;;;;;;;24.23;13.68;;;;;;;15.29;56.25;101450.19;7976773;28;20041;-67
2021/09/04 08:48:00;;;;;;;22.95;11.82;;;;;;;15.35;55.96;101448.84;7975456;28;20037;-67
2021/09/04 08:51:51;;;;;;;20.88;12.10;;;;;;;15.42;55.96;101450.91;7975634;28;20037;-67
2021/09/04 08:55:41;;;;;;;19.85;10.98;;;;;;;15.45;55.85;101441.88;7976549;28;20360;-67
2021/09/04 08:59:32;;;;;;;21.58;12.38;;;;;;;15.53;55.86;101458.88;7976494;28;20083;-67
2021/09/04 09:03:29;;;;;;;22.95;12.25;;;;;;;15.56;55.83;101455.13;7976303;28;20033;-67
2021/09/04 09:07:20;;;;;;;25.35;13.82;;;;;;;15.58;55.64;101454.03;7975752;28;20037;-67
2021/09/04 09:11:11;;;;;;;31.33;14.43;;;;;;;15.64;55.59;101460.66;7975777;28;20554;-67
2021/09/04 09:15:02;;;;;;;22.80;12.20;;;;;;;15.70;55.64;101468.16;7975803;28;20033;-67
2021/09/04 09:19:01;;;;;;;19.48;11.13;;;;;;;15.75;55.61;101457.19;7975473;28;20447;-67
2021/09/04 09:22:51;;;;;;;23.52;12.32;;;;;;;15.82;55.49;101456.59;7980282;28;20120;-67
2021/09/04 09:26:46;;;;;;;29.23;14.05;;;;;;;15.88;55.27;101457.88;7975131;28;20091;-67
2021/09/04 09:30:39;;;;;;;24.15;13.07;;;;;;;15.90;55.40;101456.81;7975247;28;20521;-67
2021/09/04 09:34:34;;;;;;;22.42;12.52;;;;;;;15.96;55.37;101453.66;7975284;28;20083;-67
2021/09/04 09:38:30;;;;;;;24.60;13.13;;;;;;;16.07;55.28;101452.84;7975413;28;20120;-67
2021/09/04 09:42:22;;;;;;;22.38;12.20;;;;;;;16.23;55.46;101453.31;8005316;28;20040;-67
2021/09/04 09:46:18;;;;;;;23.67;13.18;;;;;;;16.39;55.44;101448.44;8006309;28;20087;-67
2021/09/04 09:50:10;;;;;;;21.38;12.73;;;;;;;16.53;55.49;101445.50;8006994;28;20510;-67
2021/09/04 09:54:00;;;;;;;24.20;13.20;;;;;;;16.60;55.50;101452.00;8006293;28;20033;-67
2021/09/04 09:57:52;;;;;;;24.38;13.27;;;;;;;16.68;55.56;101439.91;8006398;28;20036;-67
2021/09/04 10:01:43;;;;;;;21.73;12.25;;;;;;;16.67;55.53;101440.88;7983617;28;20071;-67
2021/09/04 10:05:34;;;;;;;18.05;11.52;;;;;;;16.69;55.49;101446.91;7999713;28;20549;-67
2021/09/04 10:09:25;;;;;;;18.80;11.77;;;;;;;16.78;55.43;101444.31;8005033;28;20040;-67
2021/09/04 10:13:17;;;;;;;22.45;12.13;;;;;;;16.89;55.55;101446.09;8001256;28;20039;-67
2021/09/04 10:17:09;;;;;;;20.75;11.55;;;;;;;16.98;55.66;101440.88;7974947;28;20108;-67
2021/09/04 10:21:10;;;;;;;21.23;12.43;;;;;;;17.08;55.17;101441.78;7982303;28;20037;-67
2021/09/04 10:25:12;;;;;;;14.23;9.32;;;;;;;17.11;55.21;101432.72;7986741;28;20728;-67
2021/09/04 10:29:18;;;;;;;20.05;10.40;;;;;;;17.14;55.20;101434.28;7974203;28;20068;-67
2021/09/04 10:33:10;;;;;;;16.55;10.55;;;;;;;17.15;55.30;101422.69;7973534;28;20031;-67
2021/09/04 10:37:05;;;;;;;21.60;11.30;;;;;;;17.20;55.22;101421.31;7975799;28;20045;-67
2021/09/04 10:41:21;;;;;;;20.33;11.43;;;;;;;17.20;55.24;101423.97;8011262;28;20033;-67
2021/09/04 10:45:15;;;;;;;15.82;9.20;;;;;;;17.25;55.40;101418.25;8011769;28;20625;-67
2021/09/04 10:49:05;;;;;;;15.95;9.73;;;;;;;17.28;55.25;101420.69;8011682;28;20036;-67
2021/09/04 10:53:00;;;;;;;19.05;11.63;;;;;;;17.36;55.31;101420.84;8011711;28;20322;-67
2021/09/04 10:57:17;;;;;;;17.40;10.63;;;;;;;17.36;55.23;101413.69;8011519;28;20029;-67
2021/09/04 11:01:08;;;;;;;18.67;11.18;;;;;;;17.40;55.11;101420.44;8011639;28;20079;-67
2021/09/04 11:05:18;;;;;;;19.33;10.98;;;;;;;17.42;55.14;101415.00;8011239;28;20033;-67
2021/09/04 11:09:11;;;;;;;17.73;10.23;;;;;;;17.43;55.28;101412.22;8011106;28;20044;-67
2021/09/04 11:13:11;;;;;;;23.02;12.00;;;;;;;17.45;55.04;101402.28;8011241;28;20037;-68
2021/09/04 11:17:16;;;;;;;20.52;11.30;;;;;;;17.45;55.03;101402.28;7984824;28;20042;-67
2021/09/04 11:21:07;;;;;;;22.08;11.98;;;;;;;17.47;55.24;101394.19;7979585;28;20037;-67
2021/09/04 11:24:58;;;;;;;23.77;11.98;;;;;;;17.52;55.22;101398.16;7978995;28;20037;-67
2021/09/04 11:28:57;;;;;;;19.27;11.98;;;;;;;17.52;55.06;101392.84;7979127;28;20044;-67
2021/09/04 11:32:48;;;;;;;19.55;11.15;;;;;;;17.54;55.15;101392.69;7979163;28;20120;-68
2021/09/04 11:36:39;;;;;;;27.05;11.95;;;;;;;17.62;55.02;101390.19;7978475;28;20110;-67
2021/09/04 11:40:34;;;;;;;21.63;11.32;;;;;;;17.61;55.14;101387.69;7995052;28;20033;-67
2021/09/04 11:44:25;;;;;;;19.15;12.23;;;;;;;17.66;54.92;101394.28;8008804;28;20033;-67
2021/09/04 11:48:16;;;;;;;19.35;11.95;;;;;;;17.69;55.05;101390.56;8008680;28;20059;-67
2021/09/04 11:52:15;;;;;;;24.83;12.23;;;;;;;17.67;55.16;101371.19;8009738;28;20033;-67
2021/09/04 11:56:16;;;;;;;25.40;13.05;;;;;;;17.75;54.90;101379.38;8008556;28;20662;-68
2021/09/04 12:00:11;;;;;;;21.63;13.20;;;;;;;17.77;54.85;101380.94;8008523;28;20496;-67
2021/09/04 12:04:04;;;;;;;23.98;13.52;;;;;;;17.78;54.83;101382.59;8008938;28;20219;-67
2021/09/04 12:08:01;;;;;;;20.77;13.13;;;;;;;17.78;54.77;101385.25;8009139;28;20700;-67
2021/09/04 12:11:52;;;;;;;20.58;12.50;;;;;;;17.83;54.93;101384.84;8009748;28;20043;-67
2021/09/04 12:15:44;;;;;;;21.30;12.70;;;;;;;17.87;54.74;101387.09;7989028;28;20094;-67
2021/09/04 12:19:38;;;;;;;20.55;12.80;;;;;;;17.88;54.90;101372.84;7977894;28;20140;-67
2021/09/04 12:23:29;;;;;;;24.00;13.43;;;;;;;17.92;54.83;101390.19;7977850;28;20037;-67
2021/09/04 12:27:35;;;;;;;23.35;12.95;;;;;;;17.96;54.69;101401.38;7997639;28;20034;-67
2021/09/04 12:31:26;;;;;;;19.60;12.48;;;;;;;17.98;54.81;101388.81;7989758;28;20041;-67
2021/09/04 12:35:17;;;;;;;21.83;12.13;;;;;;;17.99;54.89;101391.31;7978525;28;20090;-67
2021/09/04 12:39:18;;;;;;;21.00;12.93;;;;;;;18.03;54.89;101399.84;7993177;28;20386;-68
2021/09/04 12:43:09;;;;;;;23.58;13.88;;;;;;;18.05;54.96;101397.06;7997573;28;20028;-67
2021/09/04 12:47:02;;;;;;;27.35;14.80;;;;;;;17.98;54.54;101368.38;7988328;28;20052;-67
2021/09/04 12:51:11;;;;;;;29.33;16.25;;;;;;;18.10;54.60;101385.06;7998860;28;20064;-67
2021/09/04 12:55:01;;;;;;;30.50;16.35;;;;;;;18.14;54.59;101380.31;7982203;28;20482;-68
2021/09/04 12:59:03;;;;;;;34.15;19.73;;;;;;;18.17;54.67;101374.69;7989545;28;20025;-67
2021/09/04 13:02:53;;;;;;;29.98;15.93;;;;;;;18.18;54.62;101379.88;7980333;28;20038;-67
2021/09/04 13:06:44;;;;;;;28.23;15.52;;;;;;;18.18;54.68;101373.72;7989279;28;20033;-68
2021/09/04 13:10:35;;;;;;;25.05;14.57;;;;;;;18.23;54.33;101372.31;7996354;28;20044;-67
2021/09/04 13:14:25;;;;;;;25.17;15.05;;;;;;;18.26;54.47;101373.88;7986778;28;20029;-67
2021/09/04 13:18:16;;;;;;;25.83;15.15;;;;;;;18.26;54.21;101368.56;7981482;28;20106;-67
2021/09/04 13:22:07;;;;;;;25.92;15.20;;;;;;;18.30;54.18;101377.94;7995264;28;20037;-68
2021/09/04 13:25:58;;;;;;;20.63;13.85;;;;;;;18.30;54.29;101360.16;7991090;28;20037;-67
2021/09/04 13:29:49;;;;;;;26.75;15.15;;;;;;;18.32;54.36;101366.16;7981716;28;20044;-67
2021/09/04 13:33:39;;;;;;;22.20;13.35;;;;;;;18.33;54.22;101365.19;7970983;28;20482;-67
2021/09/04 13:37:30;;;;;;;26.42;14.80;;;;;;;18.34;54.40;101366.88;7972917;28;20799;-68
2021/09/04 13:41:20;;;;;;;30.98;17.30;;;;;;;18.37;53.95;101371.91;7972547;28;20043;-68
2021/09/04 13:45:11;;;;;;;29.77;18.13;;;;;;;18.38;54.32;101364.78;7961284;28;20030;-68
2021/09/04 13:49:02;;;;;;;26.48;14.43;;;;;;;18.40;54.36;101353.00;7968562;28;20041;-68
2021/09/04 13:52:53;;;;;;;27.65;16.60;;;;;;;18.39;53.84;101351.34;7982502;28;20045;-68
2021/09/04 13:56:43;;;;;;;36.05;17.70;;;;;;;18.42;54.13;101358.19;7970855;28;20026;-68
2021/09/04 14:00:34;;;;;;;33.78;18.55;;;;;;;18.42;54.25;101350.22;7988175;28;20528;-68
2021/09/04 14:04:25;;;;;;;35.63;19.48;;;;;;;18.45;54.26;101353.47;7983093;28;20083;-68
2021/09/04 14:08:15;;;;;;;31.13;18.95;;;;;;;18.47;53.81;101348.00;7974349;28;20025;-68
2021/09/04 14:12:06;;;;;;;32.80;17.98;;;;;;;18.50;54.43;101346.88;7971019;28;20033;-68
2021/09/04 14:15:57;;;;;;;30.63;17.95;;;;;;;18.52;54.06;101339.63;7969559;28;20040;-68
2021/09/04 14:19:48;;;;;;;33.72;19.10;;;;;;;18.54;53.99;101345.63;7960505;28;20033;-68
2021/09/04 14:23:38;;;;;;;34.20;18.73;;;;;;;18.51;53.79;101341.44;7967728;28;20603;-68
2021/09/04 14:27:29;;;;;;;32.40;16.80;;;;;;;18.54;54.17;101338.47;7987216;28;20394;-68
2021/09/04 14:31:20;;;;;;;34.05;18.45;;;;;;;18.55;53.89;101334.84;7979406;28;20090;-69
2021/09/04 14:35:11;;;;;;;30.60;16.95;;;;;;;18.54;53.66;101327.84;7964312;28;20042;-68
2021/09/04 14:39:01;;;;;;;32.47;17.50;;;;;;;18.56;53.61;101328.53;7975550;28;20097;-68
2021/09/04 14:42:52;;;;;;;29.23;16.95;;;;;;;18.54;54.05;101316.34;7971551;28;20040;-68
2021/09/04 14:46:43;;;;;;;31.17;17.17;;;;;;;18.58;53.78;101323.06;7981738;28;20033;-68
2021/09/04 14:50:33;;;;;;;28.02;16.05;;;;;;;18.59;53.91;101325.59;7984680;28;20044;-68
2021/09/04 14:54:24;;;;;;;25.77;16.67;;;;;;;18.60;53.54;101323.78;7984341;28;20029;-69
2021/09/04 14:58:15;;;;;;;33.67;18.25;;;;;;;18.61;53.69;101323.63;7983525;28;20040;-69
2021/09/04 15:02:05;;;;;;;36.15;18.08;;;;;;;18.62;53.99;101317.31;7980630;28;20041;-69
2021/09/04 15:05:56;;;;;;;31.13;17.05;;;;;;;18.64;54.00;101323.34;7985601;28;20105;-68
2021/09/04 15:09:46;;;;;;;34.00;19.08;;;;;;;18.63;53.74;101313.69;7983548;28;20025;-69
2021/09/04 15:13:37;;;;;;;37.63;19.27;;;;;;;18.64;53.33;101314.53;7972233;28;20675;-70
2021/09/04 15:17:28;;;;;;;31.75;17.73;;;;;;;18.63;53.40;101310.19;7972719;28;20028;-70
2021/09/04 15:21:18;;;;;;;36.05;19.83;;;;;;;18.62;53.76;101305.84;7975021;28;20624;-71
2021/09/04 15:25:09;;;;;;;30.00;17.63;;;;;;;18.54;53.68;101292.41;7962008;28;20051;-69
2021/09/04 15:29:00;;;;;;;34.90;20.88;;;;;;;18.60;53.74;101311.31;7993262;28;20120;-72
2021/09/04 15:32:50;;;;;;;36.03;18.75;;;;;;;18.58;53.37;101312.41;7976837;28;20516;-71
2021/09/04 15:36:41;;;;;;;30.40;18.98;;;;;;;18.54;53.71;101305.72;7972180;28;20026;-71
2021/09/04 15:40:32;;;;;;;31.65;18.20;;;;;;;18.53;53.58;101312.84;7976098;28;20111;-71
2021/09/04 15:44:22;;;;;;;34.55;19.15;;;;;;;18.53;53.42;101304.03;7973844;28;20064;-71
2021/09/04 15:48:14;;;;;;;35.22;18.88;;;;;;;18.54;53.67;101305.72;7972287;28;20093;-70
2021/09/04 15:52:04;;;;;;;37.03;19.05;;;;;;;18.54;53.36;101305.72;7978856;28;20064;-70
2021/09/04 15:55:55;;;;;;;33.13;18.17;;;;;;;18.51;53.63;101311.31;7969343;28;20061;-70
2021/09/04 15:59:47;;;;;;;27.52;17.42;;;;;;;18.52;53.57;101316.50;7979561;28;20037;-70
2021/09/04 16:03:37;;;;;;;31.48;18.33;;;;;;;18.49;53.36;101303.47;7984809;28;20034;-70
2021/09/04 16:07:28;;;;;;;28.58;17.13;;;;;;;18.45;53.39;101305.56;7963726;28;20034;-71
2021/09/04 16:11:19;;;;;;;26.65;16.67;;;;;;;18.47;53.81;101299.28;7982352;28;20029;-71
2021/09/04 16:15:11;;;;;;;26.52;17.48;;;;;;;18.46;53.37;101303.75;7977157;28;20060;-70
2021/09/04 16:19:04;;;;;;;27.63;16.95;;;;;;;18.44;53.25;101301.22;7971071;28;20029;-69
2021/09/04 16:22:54;;;;;;;31.02;17.45;;;;;;;18.42;53.51;101303.19;7978020;28;20041;-69
2021/09/04 16:26:45;;;;;;;27.92;16.13;;;;;;;18.39;53.31;101300.81;7972168;28;20045;-68
2021/09/04 16:30:36;;;;;;;27.05;16.75;;;;;;;18.40;53.17;101304.28;7969307;28;20041;-69
2021/09/04 16:34:27;;;;;;;28.73;16.60;;;;;;;18.38;53.23;101298.28;7967137;28;20037;-69
2021/09/04 16:38:17;;;;;;;24.30;15.18;;;;;;;18.36;53.16;101302.88;7969480;28;20034;-69
2021/09/04 16:42:08;;;;;;;27.75;15.20;;;;;;;18.34;53.27;101299.53;7967395;28;20038;-69
2021/09/04 16:45:59;;;;;;;24.50;15.65;;;;;;;18.33;53.37;101293.38;7976470;28;20040;-69
2021/09/04 16:49:49;;;;;;;26.60;16.05;;;;;;;18.30;53.04;101288.34;7975683;28;20036;-69
2021/09/04 16:53:40;;;;;;;31.42;17.13;;;;;;;18.28;53.39;101292.97;7969023;28;20033;-69
2021/09/04 16:57:30;;;;;;;37.20;17.23;;;;;;;18.28;53.44;101300.09;7981143;28;20046;-69
2021/09/04 17:01:21;;;;;;;27.13;16.45;;;;;;;18.21;53.42;101294.50;7967138;28;20021;-69
2021/09/04 17:05:12;;;;;;;27.45;17.00;;;;;;;18.20;53.05;101292.81;7980821;28;20606;-69
2021/09/04 17:09:02;;;;;;;25.17;15.18;;;;;;;18.17;53.27;101298.44;7977081;28;20048;-69
2021/09/04 17:12:53;;;;;;;29.35;14.68;;;;;;;18.16;52.99;101301.22;7985672;28;20094;-69
2021/09/04 17:16:43;;;;;;;27.45;16.08;;;;;;;18.09;53.27;101290.31;7968936;28;20033;-69
2021/09/04 17:20:34;;;;;;;29.40;16.40;;;;;;;18.12;53.07;101294.50;7972373;28;20075;-69
2021/09/04 17:24:25;;;;;;;22.10;14.02;;;;;;;18.08;53.30;101307.25;7973579;28;20025;-69
2021/09/04 17:28:15;;;;;;;27.95;16.60;;;;;;;18.06;53.18;101305.72;7984882;28;20051;-69
2021/09/04 17:32:06;;;;;;;24.80;15.70;;;;;;;18.02;53.30;101295.34;7970723;28;20044;-69
2021/09/04 17:35:58;;;;;;;29.30;16.17;;;;;;;17.98;53.25;101303.75;7977988;28;20766;-69
2021/09/04 17:39:51;;;;;;;28.45;15.20;;;;;;;17.96;53.34;101297.72;7973317;28;20456;-69